createdAt,value
2023-06-30T00:02:04.557Z,16.05
2023-06-30T00:04:34.175Z,23.33
2023-06-30T00:07:04.091Z,22.55
2023-06-30T00:09:32.216Z,21.30
2023-06-30T00:12:00.573Z,21.17
2023-06-30T00:14:28.954Z,22.15
2023-06-30T00:16:58.232Z,19.20
2023-06-30T00:19:27.436Z,22.50
2023-06-30T00:21:55.767Z,23.88
2023-06-30T00:24:25.400Z,22.35
2023-06-30T00:26:53.615Z,20.73
2023-06-30T00:29:21.870Z,22.15
2023-06-30T00:31:50.016Z,23.42
2023-06-30T00:34:18.110Z,20.17
2023-06-30T00:36:46.216Z,20.40
2023-06-30T00:39:14.667Z,20.73
2023-06-30T00:41:44.236Z,23.10
2023-06-30T00:44:12.342Z,21.60
2023-06-30T00:46:40.433Z,23.13
2023-06-30T00:49:08.753Z,24.40
2023-06-30T00:51:37.062Z,21.23
2023-06-30T00:54:05.723Z,19.95
2023-06-30T00:56:33.858Z,24.15
2023-06-30T00:59:03.320Z,24.10
2023-06-30T01:01:35.727Z,17.75
2023-06-30T01:04:12.152Z,18.13
2023-06-30T01:06:49.199Z,20.67
2023-06-30T01:09:22.657Z,19.15
2023-06-30T01:11:51.273Z,22.67
2023-06-30T01:14:22.263Z,20.88
2023-06-30T01:16:52.533Z,17.95
2023-06-30T01:19:27.164Z,20.80
2023-06-30T01:22:02.583Z,19.75
2023-06-30T01:24:35.378Z,17.42
2023-06-30T01:27:04.444Z,20.02
2023-06-30T01:29:34.482Z,22.73
2023-06-30T01:32:03.346Z,29.08
2023-06-30T01:34:31.413Z,20.70
2023-06-30T01:36:59.414Z,18.77
2023-06-30T01:39:27.456Z,19.35
2023-06-30T01:41:56.284Z,18.60
2023-06-30T01:44:24.815Z,22.38
2023-06-30T01:46:54.292Z,19.83
2023-06-30T01:49:22.815Z,17.55
2023-06-30T01:51:51.286Z,16.08
2023-06-30T01:54:19.327Z,17.90
2023-06-30T01:56:50.756Z,19.23
2023-06-30T01:59:18.938Z,18.35
2023-06-30T02:01:47.011Z,17.02
2023-06-30T02:04:18.029Z,14.23
2023-06-30T02:06:46.108Z,23.70
2023-06-30T02:09:14.472Z,21.75
2023-06-30T02:11:42.641Z,21.38
2023-06-30T02:14:10.726Z,17.77
2023-06-30T02:16:38.879Z,16.02
2023-06-30T02:19:06.983Z,15.30
2023-06-30T02:21:36.621Z,18.70
2023-06-30T02:24:04.859Z,16.48
2023-06-30T02:26:32.888Z,18.30
2023-06-30T02:29:00.953Z,17.58
2023-06-30T02:31:29.091Z,15.90
2023-06-30T02:33:57.216Z,18.25
2023-06-30T02:36:25.280Z,16.35
2023-06-30T02:38:54.982Z,12.82
2023-06-30T02:41:23.053Z,16.15
2023-06-30T02:43:51.132Z,12.07
2023-06-30T02:46:19.204Z,15.48
2023-06-30T02:48:47.330Z,15.02
2023-06-30T02:51:15.520Z,13.50
2023-06-30T02:53:43.731Z,8.32
2023-06-30T02:56:13.220Z,10.75
2023-06-30T02:58:41.299Z,8.77
2023-06-30T03:01:09.520Z,9.60
2023-06-30T03:03:37.870Z,7.10
2023-06-30T03:06:06.226Z,6.15
2023-06-30T03:08:34.327Z,8.98
2023-06-30T03:11:02.395Z,9.75
2023-06-30T03:13:31.792Z,6.53
2023-06-30T03:16:00.006Z,4.88
2023-06-30T03:18:28.058Z,3.95
2023-06-30T03:20:56.064Z,3.47
2023-06-30T03:23:24.128Z,3.70
2023-06-30T03:25:52.232Z,3.85
2023-06-30T03:28:20.265Z,4.55
2023-06-30T03:30:49.565Z,4.35
2023-06-30T03:33:17.528Z,3.58
2023-06-30T03:35:48.102Z,1.88
2023-06-30T03:38:16.907Z,1.70
2023-06-30T03:40:45.168Z,2.42
2023-06-30T03:43:13.236Z,2.92
2023-06-30T03:45:41.252Z,1.48
2023-06-30T03:48:22.332Z,1.55
2023-06-30T03:50:54.094Z,1.23
2023-06-30T03:53:23.134Z,1.90
2023-06-30T03:55:51.202Z,2.08
2023-06-30T03:58:19.172Z,2.03
2023-06-30T04:00:47.194Z,1.50
2023-06-30T04:03:16.809Z,1.85
2023-06-30T04:05:45.463Z,1.75
2023-06-30T04:08:13.752Z,2.33
2023-06-30T04:10:41.794Z,2.83
2023-06-30T04:13:09.841Z,2.53
2023-06-30T04:15:37.859Z,1.80
2023-06-30T04:18:06.055Z,2.45
2023-06-30T04:20:35.461Z,5.68
2023-06-30T04:23:03.889Z,3.50
2023-06-30T04:25:31.885Z,6.13
2023-06-30T04:27:59.870Z,7.85
2023-06-30T04:30:27.908Z,5.82
2023-06-30T04:32:55.884Z,6.63
2023-06-30T04:35:26.378Z,3.83
2023-06-30T04:37:55.980Z,7.13
2023-06-30T04:40:23.921Z,6.03
2023-06-30T04:42:51.863Z,5.38
2023-06-30T04:45:19.841Z,5.38
2023-06-30T04:47:47.870Z,5.90
2023-06-30T04:50:16.030Z,5.22
2023-06-30T04:52:44.493Z,4.70
2023-06-30T04:55:13.809Z,3.67
2023-06-30T04:57:41.868Z,6.97
2023-06-30T05:00:11.118Z,3.80
2023-06-30T05:02:39.103Z,3.58
2023-06-30T05:05:08.671Z,3.88
2023-06-30T05:07:36.696Z,4.32
2023-06-30T05:10:04.762Z,5.50
2023-06-30T05:12:34.089Z,3.33
2023-06-30T05:15:02.067Z,3.70
2023-06-30T05:17:30.362Z,4.07
2023-06-30T05:19:58.731Z,5.18
2023-06-30T05:22:26.884Z,7.22
2023-06-30T05:24:54.832Z,3.53
2023-06-30T05:27:22.826Z,5.47
2023-06-30T05:29:52.117Z,6.47
2023-06-30T05:32:20.424Z,5.50
2023-06-30T05:34:48.735Z,4.75
2023-06-30T05:37:16.721Z,6.47
2023-06-30T05:39:44.671Z,8.23
2023-06-30T05:42:12.626Z,8.55
2023-06-30T05:44:40.639Z,8.02
2023-06-30T05:47:10.230Z,6.57
2023-06-30T05:49:38.172Z,7.28
2023-06-30T05:52:08.300Z,6.47
2023-06-30T05:54:36.316Z,7.30
2023-06-30T05:57:04.547Z,8.38
2023-06-30T05:59:32.626Z,7.50
2023-06-30T06:02:00.732Z,9.02
2023-06-30T06:04:30.272Z,8.68
2023-06-30T06:07:03.594Z,7.72
2023-06-30T06:09:32.121Z,10.77
2023-06-30T06:12:00.140Z,9.10
2023-06-30T06:14:28.143Z,10.73
2023-06-30T06:16:56.328Z,11.85
2023-06-30T06:19:24.324Z,13.75
2023-06-30T06:21:54.540Z,13.05
2023-06-30T06:24:22.667Z,14.57
2023-06-30T06:26:50.762Z,11.50
2023-06-30T06:29:22.786Z,15.77
2023-06-30T06:31:51.237Z,16.45
2023-06-30T06:34:20.276Z,12.98
2023-06-30T06:36:48.638Z,16.55
2023-06-30T06:39:19.704Z,13.40
2023-06-30T06:41:47.796Z,15.60
2023-06-30T06:44:15.858Z,12.02
2023-06-30T06:46:44.517Z,14.63
2023-06-30T06:49:12.923Z,15.60
2023-06-30T06:51:40.940Z,16.92
2023-06-30T06:54:09.013Z,15.18
2023-06-30T06:56:38.512Z,16.88
2023-06-30T06:59:06.500Z,13.45
2023-06-30T07:01:34.962Z,16.23
2023-06-30T07:04:03.038Z,15.98
2023-06-30T07:06:31.152Z,17.30
2023-06-30T07:08:59.162Z,17.27
2023-06-30T07:11:27.255Z,16.48
2023-06-30T07:14:01.272Z,20.45
2023-06-30T07:16:29.309Z,17.65
2023-06-30T07:18:57.457Z,17.38
2023-06-30T07:21:27.559Z,19.17
2023-06-30T07:23:55.731Z,18.00
2023-06-30T07:26:24.017Z,17.08
2023-06-30T07:28:52.075Z,15.18
2023-06-30T07:31:21.657Z,15.00
2023-06-30T07:33:49.753Z,16.88
2023-06-30T07:36:18.487Z,13.18
2023-06-30T07:38:47.363Z,15.10
2023-06-30T07:41:18.528Z,13.88
2023-06-30T07:43:46.697Z,16.25
2023-06-30T07:46:15.475Z,12.32
2023-06-30T07:48:45.165Z,15.88
2023-06-30T07:51:13.251Z,14.68
2023-06-30T07:53:41.418Z,13.50
2023-06-30T07:56:09.466Z,12.90
2023-06-30T07:58:37.647Z,11.48
2023-06-30T08:01:21.180Z,14.88
2023-06-30T08:03:51.004Z,12.10
2023-06-30T08:06:19.241Z,12.50
2023-06-30T08:08:47.378Z,10.88
2023-06-30T08:11:15.545Z,11.45
2023-06-30T08:13:43.718Z,10.57
2023-06-30T08:16:18.631Z,9.63
2023-06-30T08:18:50.594Z,12.18
2023-06-30T08:21:26.947Z,8.15
2023-06-30T08:23:59.652Z,8.90
2023-06-30T08:26:27.917Z,9.98
2023-06-30T08:29:12.113Z,10.25
2023-06-30T08:31:48.382Z,9.23
2023-06-30T08:34:27.225Z,10.05
2023-06-30T08:37:08.132Z,8.88
2023-06-30T08:42:50.096Z,7.40
2023-06-30T08:45:18.216Z,9.30
2023-06-30T08:47:46.825Z,6.97
2023-06-30T08:50:16.052Z,8.50
2023-06-30T08:52:45.651Z,8.13
2023-06-30T08:55:14.108Z,10.55
2023-06-30T08:57:43.474Z,9.02
2023-06-30T09:00:12.586Z,9.10
2023-06-30T09:02:44.090Z,10.05
2023-06-30T09:05:14.525Z,7.20
2023-06-30T09:07:48.125Z,6.32
2023-06-30T09:10:16.885Z,6.70
2023-06-30T09:12:47.764Z,11.50
2023-06-30T09:15:18.916Z,5.63
2023-06-30T09:17:47.609Z,6.50
2023-06-30T09:20:16.340Z,5.68
2023-06-30T09:22:54.427Z,8.90
2023-06-30T09:25:44.923Z,4.13
2023-06-30T09:28:15.556Z,6.20
2023-06-30T09:30:47.437Z,4.90
2023-06-30T09:33:17.177Z,3.63
2023-06-30T09:35:46.674Z,4.65
2023-06-30T09:38:16.227Z,3.60
2023-06-30T09:40:47.049Z,5.07
2023-06-30T09:43:19.531Z,4.15
2023-06-30T09:45:50.320Z,2.35
2023-06-30T09:48:18.861Z,3.70
2023-06-30T09:50:46.922Z,1.88
2023-06-30T09:53:21.185Z,2.53
2023-06-30T09:55:52.572Z,4.88
2023-06-30T09:58:22.616Z,2.33
2023-06-30T10:00:52.922Z,2.33
2023-06-30T10:03:21.865Z,2.78
2023-06-30T10:05:50.677Z,2.22
2023-06-30T10:08:19.016Z,1.63
2023-06-30T10:10:47.104Z,2.90
2023-06-30T10:13:18.698Z,1.40
2023-06-30T10:15:47.679Z,3.28
2023-06-30T10:18:18.752Z,1.35
2023-06-30T10:20:49.979Z,1.77
2023-06-30T10:23:21.283Z,2.20
2023-06-30T10:25:51.580Z,2.05
2023-06-30T10:28:22.599Z,1.65
2023-06-30T10:30:52.660Z,2.60
2023-06-30T10:33:20.762Z,1.17
2023-06-30T10:35:50.872Z,2.28
2023-06-30T10:38:19.952Z,1.40
2023-06-30T10:40:48.756Z,1.23
2023-06-30T10:43:17.012Z,1.42
2023-06-30T10:46:10.615Z,1.23
2023-06-30T10:48:41.911Z,2.03
2023-06-30T10:51:13.678Z,1.23
2023-06-30T10:53:45.779Z,2.90
2023-06-30T10:56:14.035Z,1.83
2023-06-30T10:58:47.592Z,7.35
2023-06-30T11:01:17.301Z,2.15
2023-06-30T11:04:13.892Z,3.53
2023-06-30T11:06:42.238Z,1.73
2023-06-30T11:09:12.542Z,2.17
2023-06-30T11:11:50.835Z,3.28
2023-06-30T11:14:33.391Z,2.22
2023-06-30T11:17:09.328Z,1.85
2023-06-30T11:19:38.652Z,1.27
2023-06-30T11:22:26.487Z,1.10
2023-06-30T11:24:54.946Z,2.35
2023-06-30T11:27:23.160Z,2.30
2023-06-30T11:29:52.443Z,1.67
2023-06-30T11:32:27.790Z,2.22
2023-06-30T11:34:57.684Z,1.10
2023-06-30T11:37:26.379Z,2.33
2023-06-30T11:39:55.709Z,0.93
2023-06-30T11:42:24.465Z,1.77
2023-06-30T11:44:52.855Z,1.77
2023-06-30T11:47:22.748Z,1.10
2023-06-30T11:49:51.934Z,1.02
2023-06-30T11:52:23.528Z,0.90
2023-06-30T11:54:51.570Z,2.22
2023-06-30T11:57:19.815Z,1.80
2023-06-30T11:59:50.182Z,0.90
2023-06-30T12:02:18.518Z,1.20
2023-06-30T12:04:51.687Z,1.10
2023-06-30T12:07:23.279Z,1.27
2023-06-30T12:10:01.782Z,0.82
2023-06-30T12:12:31.094Z,0.95
2023-06-30T12:14:59.104Z,2.60
2023-06-30T12:17:30.235Z,1.08
2023-06-30T12:19:59.956Z,1.25
2023-06-30T12:22:29.179Z,2.78
2023-06-30T12:24:58.150Z,3.08
2023-06-30T12:27:28.405Z,1.13
2023-06-30T12:29:57.164Z,2.03
2023-06-30T12:32:29.620Z,1.10
2023-06-30T12:35:07.195Z,1.10
2023-06-30T12:37:35.908Z,2.72
2023-06-30T12:40:04.735Z,0.75
2023-06-30T12:42:32.887Z,1.38
2023-06-30T12:45:01.340Z,1.10
2023-06-30T12:47:29.562Z,1.45
2023-06-30T12:49:57.591Z,1.33
2023-06-30T12:52:27.195Z,2.13
2023-06-30T12:54:55.517Z,1.27
2023-06-30T12:57:23.642Z,3.30
2023-06-30T12:59:51.745Z,3.50
2023-06-30T13:02:19.763Z,2.83
2023-06-30T13:04:47.789Z,1.77
2023-06-30T13:07:15.937Z,1.10
2023-06-30T13:09:48.189Z,1.02
2023-06-30T13:12:16.295Z,1.75
2023-06-30T13:14:44.360Z,3.60
2023-06-30T13:17:12.372Z,2.50
2023-06-30T13:19:40.455Z,1.70
2023-06-30T13:22:08.964Z,1.80
2023-06-30T13:24:36.956Z,1.77
2023-06-30T13:27:07.161Z,1.20
2023-06-30T13:29:35.964Z,0.80
2023-06-30T13:32:04.587Z,1.58
2023-06-30T13:34:32.622Z,0.98
2023-06-30T13:37:00.698Z,0.93
2023-06-30T13:39:28.738Z,1.80
2023-06-30T13:41:56.835Z,1.10
2023-06-30T13:44:26.609Z,1.25
2023-06-30T13:46:54.707Z,1.05
2023-06-30T13:49:22.738Z,1.13
2023-06-30T13:51:52.170Z,1.05
2023-06-30T13:54:20.820Z,1.30
2023-06-30T13:56:48.825Z,1.10
2023-06-30T13:59:17.305Z,1.67
2023-06-30T14:01:47.049Z,2.47
2023-06-30T14:04:15.454Z,1.27
2023-06-30T14:06:43.534Z,3.47
2023-06-30T14:09:12.273Z,1.30
2023-06-30T14:11:40.900Z,1.52
2023-06-30T14:14:08.966Z,1.20
2023-06-30T14:16:38.421Z,2.13
2023-06-30T14:19:08.309Z,1.27
2023-06-30T14:21:36.457Z,0.98
2023-06-30T14:24:05.525Z,1.75
2023-06-30T14:26:35.657Z,0.93
2023-06-30T14:29:05.372Z,1.02
2023-06-30T14:31:33.586Z,1.10
2023-06-30T14:34:01.769Z,2.25
2023-06-30T14:36:31.229Z,1.02
2023-06-30T14:38:59.337Z,2.10
2023-06-30T14:41:27.632Z,1.77
2023-06-30T14:43:55.662Z,2.47
2023-06-30T14:46:23.804Z,2.05
2023-06-30T14:48:51.857Z,2.50
2023-06-30T14:51:19.864Z,1.23
2023-06-30T14:53:49.301Z,1.20
2023-06-30T14:56:17.390Z,1.25
2023-06-30T14:58:45.627Z,1.27
2023-06-30T15:01:13.650Z,2.65
2023-06-30T15:03:41.699Z,1.10
2023-06-30T15:06:09.933Z,1.20
2023-06-30T15:08:38.312Z,1.15
2023-06-30T15:11:07.828Z,1.25
2023-06-30T15:13:37.843Z,2.28
2023-06-30T15:16:07.158Z,1.65
2023-06-30T15:18:35.270Z,1.77
2023-06-30T15:21:04.531Z,2.08
2023-06-30T15:23:32.749Z,1.10
2023-06-30T15:26:00.768Z,1.08
2023-06-30T15:28:30.108Z,1.27
2023-06-30T15:30:58.153Z,1.98
2023-06-30T15:33:26.696Z,1.52
2023-06-30T15:35:54.734Z,1.50
2023-06-30T15:38:22.761Z,3.50
2023-06-30T15:40:53.162Z,1.40
2023-06-30T15:43:29.205Z,2.17
2023-06-30T15:45:57.683Z,1.10
2023-06-30T15:48:25.964Z,1.65
2023-06-30T15:50:53.919Z,1.63
2023-06-30T15:53:21.943Z,1.00
2023-06-30T15:55:50.519Z,1.77
2023-06-30T15:58:18.517Z,1.88
2023-06-30T16:00:47.962Z,2.67
2023-06-30T16:03:16.787Z,1.55
2023-06-30T16:05:45.139Z,1.45
2023-06-30T16:08:13.954Z,1.30
2023-06-30T16:10:43.633Z,1.58
2023-06-30T16:13:13.399Z,2.05
2023-06-30T16:15:42.287Z,1.90
2023-06-30T16:18:11.761Z,2.10
2023-06-30T16:20:39.880Z,0.70
2023-06-30T16:23:07.894Z,1.02
2023-06-30T16:25:36.007Z,1.33
2023-06-30T16:28:04.011Z,2.58
2023-06-30T16:30:34.452Z,1.92
2023-06-30T16:33:02.908Z,1.85
2023-06-30T16:35:32.334Z,1.23
2023-06-30T16:38:00.321Z,1.30
2023-06-30T16:40:28.382Z,2.65
2023-06-30T16:42:56.381Z,3.17
2023-06-30T16:45:24.595Z,1.05
2023-06-30T16:47:52.577Z,2.78
2023-06-30T16:50:20.576Z,1.25
2023-06-30T16:52:51.178Z,2.15
2023-06-30T16:55:19.276Z,1.25
2023-06-30T16:57:48.441Z,0.90
2023-06-30T17:00:17.438Z,1.77
2023-06-30T17:02:45.571Z,1.33
2023-06-30T17:05:14.860Z,1.13
2023-06-30T17:07:42.953Z,1.88
2023-06-30T17:10:12.689Z,1.17
2023-06-30T17:12:40.742Z,1.50
2023-06-30T17:15:10.754Z,1.05
2023-06-30T17:17:39.196Z,4.80
2023-06-30T17:20:08.647Z,2.05
2023-06-30T17:22:36.588Z,1.73
2023-06-30T17:25:05.846Z,1.10
2023-06-30T17:27:35.551Z,1.15
2023-06-30T17:30:04.097Z,1.48
2023-06-30T17:32:32.144Z,1.25
2023-06-30T17:35:00.084Z,1.45
2023-06-30T17:37:28.060Z,1.58
2023-06-30T17:39:56.074Z,2.10
2023-06-30T17:42:24.071Z,1.00
2023-06-30T17:44:53.372Z,1.98
2023-06-30T17:47:21.303Z,2.40
2023-06-30T17:49:49.556Z,1.48
2023-06-30T17:52:17.512Z,1.30
2023-06-30T17:54:45.758Z,1.20
2023-06-30T17:57:14.417Z,0.98
2023-06-30T17:59:42.523Z,2.30
2023-06-30T18:02:12.199Z,2.55
2023-06-30T18:04:40.476Z,2.15
2023-06-30T18:07:11.730Z,2.13
2023-06-30T18:09:41.743Z,2.55
2023-06-30T18:12:10.949Z,1.63
2023-06-30T18:14:40.613Z,2.78
2023-06-30T18:17:12.882Z,2.50
2023-06-30T18:19:43.408Z,1.40
2023-06-30T18:22:12.031Z,1.60
2023-06-30T18:24:40.286Z,1.10
2023-06-30T18:27:08.840Z,1.13
2023-06-30T18:29:43.420Z,1.58
2023-06-30T18:32:11.787Z,1.40
2023-06-30T18:34:40.031Z,1.73
2023-06-30T18:37:10.259Z,1.10
2023-06-30T18:39:42.284Z,1.58
2023-06-30T18:42:17.545Z,1.17
2023-06-30T18:44:46.039Z,1.30
2023-06-30T18:47:14.151Z,1.23
2023-06-30T18:49:42.560Z,1.65
2023-06-30T18:52:16.176Z,2.28
2023-06-30T18:54:49.902Z,1.60
2023-06-30T18:57:18.493Z,4.45
2023-06-30T18:59:46.740Z,1.30
2023-06-30T19:02:18.068Z,2.53
2023-06-30T19:04:46.861Z,1.65
2023-06-30T19:07:31.208Z,2.38
2023-06-30T19:10:04.069Z,4.03
2023-06-30T19:12:42.174Z,1.42
2023-06-30T19:15:12.359Z,1.98
2023-06-30T19:17:54.393Z,1.42
2023-06-30T19:20:27.593Z,1.10
2023-06-30T19:23:03.512Z,1.55
2023-06-30T19:25:37.867Z,1.35
2023-06-30T19:28:15.244Z,1.38
2023-06-30T19:30:59.212Z,1.30
2023-06-30T19:33:38.052Z,1.13
2023-06-30T19:36:13.263Z,3.50
2023-06-30T19:38:43.782Z,3.83
2023-06-30T19:41:18.050Z,3.05
2023-06-30T19:43:46.439Z,2.35
2023-06-30T19:46:15.061Z,2.05
2023-06-30T19:49:01.736Z,1.40
2023-06-30T19:51:46.567Z,1.92
2023-06-30T19:54:23.646Z,1.33
2023-06-30T19:57:08.482Z,1.48
2023-06-30T19:59:49.929Z,2.03
2023-06-30T20:02:31.417Z,2.35
2023-06-30T20:05:01.087Z,1.40
2023-06-30T20:07:34.981Z,1.50
2023-06-30T20:10:05.130Z,1.40
2023-06-30T20:13:12.164Z,2.15
2023-06-30T20:15:52.282Z,2.35
2023-06-30T20:18:34.098Z,1.20
2023-06-30T20:23:52.832Z,2.67
2023-06-30T20:26:29.904Z,1.52
2023-06-30T20:29:01.794Z,2.50
2023-06-30T20:31:36.231Z,1.98
2023-06-30T20:34:05.095Z,2.03
2023-06-30T20:36:36.668Z,1.50
2023-06-30T20:42:33.974Z,3.50
2023-06-30T20:45:10.932Z,1.80
2023-06-30T20:47:57.037Z,3.47
2023-06-30T20:50:40.361Z,1.85
2023-06-30T20:56:27.136Z,1.65
2023-06-30T20:58:59.142Z,2.78
2023-06-30T21:01:40.323Z,2.05
2023-06-30T21:04:23.801Z,1.80
2023-06-30T21:07:00.110Z,2.38
2023-06-30T21:09:30.495Z,3.13
2023-06-30T21:12:02.229Z,1.83
2023-06-30T21:14:31.848Z,3.38
2023-06-30T21:17:02.969Z,3.17
2023-06-30T21:19:31.082Z,11.98
2023-06-30T21:22:28.856Z,6.70
2023-06-30T21:25:12.869Z,2.72
2023-06-30T21:27:55.772Z,2.20
2023-06-30T21:31:02.636Z,2.85
2023-06-30T21:33:30.747Z,3.58
2023-06-30T21:36:14.787Z,2.17
2023-06-30T21:38:46.475Z,2.55
2023-06-30T21:41:17.684Z,3.00
2023-06-30T21:43:50.187Z,1.50
2023-06-30T21:46:25.735Z,5.00
2023-06-30T21:48:59.875Z,2.28
2023-06-30T21:51:39.803Z,5.32
2023-06-30T21:54:16.530Z,2.70
2023-06-30T21:56:49.805Z,2.47
2023-06-30T21:59:20.376Z,2.60
2023-06-30T22:01:53.169Z,3.03
2023-06-30T22:04:33.375Z,4.68
2023-06-30T22:07:10.723Z,2.72
2023-06-30T22:09:53.324Z,2.05
2023-06-30T22:12:32.194Z,3.70
2023-06-30T22:15:11.020Z,2.90
2023-06-30T22:20:47.402Z,2.42
2023-06-30T22:23:24.286Z,3.95
2023-06-30T22:26:16.552Z,2.28
2023-06-30T22:28:50.162Z,2.92
2023-06-30T22:31:27.945Z,5.22
2023-06-30T22:34:16.477Z,2.92
2023-06-30T22:36:48.945Z,2.33
2023-06-30T22:39:21.119Z,2.55
2023-06-30T22:41:58.426Z,3.95
2023-06-30T22:44:42.706Z,2.97
2023-06-30T22:47:25.602Z,2.25
2023-06-30T22:50:02.736Z,3.53
2023-06-30T22:52:37.884Z,2.58
2023-06-30T22:55:13.414Z,2.03
2023-06-30T22:57:46.748Z,4.47
2023-06-30T23:00:22.719Z,2.78
2023-06-30T23:02:57.491Z,2.67
2023-06-30T23:05:34.273Z,2.90
2023-06-30T23:08:06.029Z,2.08
2023-06-30T23:10:36.114Z,7.20
2023-06-30T23:13:09.199Z,3.08
2023-06-30T23:15:40.420Z,2.92
2023-06-30T23:18:15.325Z,5.35
2023-06-30T23:20:45.418Z,2.75
2023-06-30T23:23:21.742Z,4.25
2023-06-30T23:25:54.238Z,2.78
2023-06-30T23:28:38.134Z,2.75
2023-06-30T23:31:18.513Z,4.50
2023-06-30T23:33:51.875Z,2.67
2023-06-30T23:36:26.528Z,4.20
2023-06-30T23:38:54.925Z,2.80
2023-06-30T23:41:25.303Z,3.40
2023-06-30T23:44:12.943Z,2.50
2023-06-30T23:46:48.145Z,2.60
2023-06-30T23:49:16.553Z,3.05
2023-06-30T23:51:46.166Z,2.38
2023-06-30T23:54:17.260Z,3.33
2023-06-30T23:57:03.248Z,2.85
2023-06-30T23:59:45.290Z,2.95
